sensor_id;sensor_type;location;lat;lon;timestamp;pressure;altitude;pressure_sealevel;temperature;humidity
68712;BME280;55690;51.566;19.198;2023-01-19T00:02:03;100295.86;;;4.11;100.00
68712;BME280;55690;51.566;19.198;2023-01-19T00:06:06;100305.26;;;3.86;100.00
68712;BME280;55690;51.566;19.198;2023-01-19T00:10:08;100313.26;;;4.04;100.00
68712;BME280;55690;51.566;19.198;2023-01-19T00:14:10;100314.69;;;3.93;100.00
68712;BME280;55690;51.566;19.198;2023-01-19T00:18:11;100320.59;;;3.84;100.00
68712;BME280;55690;51.566;19.198;2023-01-19T00:22:13;100318.71;;;4.02;100.00
68712;BME280;55690;51.566;19.198;2023-01-19T00:26:17;100315.84;;;3.89;100.00
68712;BME280;55690;51.566;19.198;2023-01-19T00:30:23;100314.29;;;4.01;100.00
68712;BME280;55690;51.566;19.198;2023-01-19T00:34:29;100315.85;;;4.05;100.00
68712;BME280;55690;51.566;19.198;2023-01-19T00:38:39;100320.20;;;4.08;100.00
68712;BME280;55690;51.566;19.198;2023-01-19T00:42:42;100335.94;;;3.98;100.00
68712;BME280;55690;51.566;19.198;2023-01-19T00:46:48;100336.56;;;4.03;100.00
68712;BME280;55690;51.566;19.198;2023-01-19T00:50:54;100338.84;;;3.78;100.00
68712;BME280;55690;51.566;19.198;2023-01-19T00:55:00;100348.75;;;3.93;100.00
68712;BME280;55690;51.566;19.198;2023-01-19T00:59:06;100346.37;;;4.04;100.00
68712;BME280;55690;51.566;19.198;2023-01-19T01:03:12;100337.80;;;3.80;100.00
68712;BME280;55690;51.566;19.198;2023-01-19T01:07:20;100335.31;;;3.93;100.00
68712;BME280;55690;51.566;19.198;2023-01-19T01:11:25;100345.63;;;3.85;100.00
68712;BME280;55690;51.566;19.198;2023-01-19T01:15:31;100337.48;;;3.86;100.00
68712;BME280;55690;51.566;19.198;2023-01-19T01:19:37;100343.65;;;3.88;100.00
68712;BME280;55690;51.566;19.198;2023-01-19T01:23:43;100339.81;;;3.92;100.00
68712;BME280;55690;51.566;19.198;2023-01-19T01:27:51;100332.82;;;3.90;100.00
68712;BME280;55690;51.566;19.198;2023-01-19T01:31:56;100320.15;;;3.92;100.00
68712;BME280;55690;51.566;19.198;2023-01-19T01:36:02;100316.64;;;3.57;100.00
68712;BME280;55690;51.566;19.198;2023-01-19T01:40:11;100320.06;;;3.93;100.00
68712;BME280;55690;51.566;19.198;2023-01-19T01:48:29;100296.49;;;3.83;100.00
68712;BME280;55690;51.566;19.198;2023-01-19T01:52:33;100302.13;;;3.94;100.00
68712;BME280;55690;51.566;19.198;2023-01-19T01:56:40;100296.58;;;3.81;100.00
68712;BME280;55690;51.566;19.198;2023-01-19T02:00:42;100297.98;;;3.88;100.00
68712;BME280;55690;51.566;19.198;2023-01-19T02:05:05;100297.14;;;3.71;100.00
68712;BME280;55690;51.566;19.198;2023-01-19T02:09:10;100312.46;;;3.68;100.00
68712;BME280;55690;51.566;19.198;2023-01-19T02:13:23;100302.75;;;3.66;100.00
68712;BME280;55690;51.566;19.198;2023-01-19T02:17:26;100301.16;;;3.62;100.00
68712;BME280;55690;51.566;19.198;2023-01-19T02:21:37;100304.01;;;3.59;100.00
68712;BME280;55690;51.566;19.198;2023-01-19T02:25:43;100291.77;;;3.53;100.00
68712;BME280;55690;51.566;19.198;2023-01-19T02:29:45;100306.88;;;3.39;100.00
68712;BME280;55690;51.566;19.198;2023-01-19T02:33:46;100311.30;;;3.40;100.00
68712;BME280;55690;51.566;19.198;2023-01-19T02:37:48;100314.70;;;3.43;100.00
68712;BME280;55690;51.566;19.198;2023-01-19T02:41:54;100320.13;;;3.24;100.00
68712;BME280;55690;51.566;19.198;2023-01-19T02:45:59;100319.15;;;3.08;100.00
68712;BME280;55690;51.566;19.198;2023-01-19T02:50:00;100316.54;;;3.07;100.00
68712;BME280;55690;51.566;19.198;2023-01-19T02:54:08;100312.99;;;3.06;100.00
68712;BME280;55690;51.566;19.198;2023-01-19T03:06:47;100309.94;;;2.78;100.00
68712;BME280;55690;51.566;19.198;2023-01-19T03:11:00;100321.61;;;2.77;100.00
68712;BME280;55690;51.566;19.198;2023-01-19T03:15:51;100334.30;;;2.73;100.00
68712;BME280;55690;51.566;19.198;2023-01-19T03:19:20;100333.79;;;2.65;100.00
68712;BME280;55690;51.566;19.198;2023-01-19T03:23:26;100337.34;;;2.65;100.00
68712;BME280;55690;51.566;19.198;2023-01-19T03:27:36;100334.66;;;2.65;100.00
68712;BME280;55690;51.566;19.198;2023-01-19T03:31:44;100341.83;;;2.65;100.00
68712;BME280;55690;51.566;19.198;2023-01-19T03:35:50;100341.76;;;2.66;100.00
68712;BME280;55690;51.566;19.198;2023-01-19T03:39:52;100344.73;;;2.60;100.00
68712;BME280;55690;51.566;19.198;2023-01-19T03:43:56;100355.82;;;2.34;100.00
68712;BME280;55690;51.566;19.198;2023-01-19T03:47:59;100376.24;;;2.37;100.00
68712;BME280;55690;51.566;19.198;2023-01-19T03:52:02;100372.73;;;2.55;100.00
68712;BME280;55690;51.566;19.198;2023-01-19T03:56:05;100380.83;;;2.53;100.00
68712;BME280;55690;51.566;19.198;2023-01-19T04:00:08;100390.96;;;2.47;100.00
68712;BME280;55690;51.566;19.198;2023-01-19T04:04:09;100388.80;;;2.55;100.00
68712;BME280;55690;51.566;19.198;2023-01-19T04:08:13;100384.86;;;2.62;100.00
68712;BME280;55690;51.566;19.198;2023-01-19T04:12:14;100395.59;;;2.62;100.00
68712;BME280;55690;51.566;19.198;2023-01-19T04:16:16;100395.52;;;2.63;100.00
68712;BME280;55690;51.566;19.198;2023-01-19T04:20:21;100380.31;;;2.83;100.00
68712;BME280;55690;51.566;19.198;2023-01-19T04:24:23;100386.69;;;2.80;100.00
68712;BME280;55690;51.566;19.198;2023-01-19T04:28:25;100389.15;;;2.85;100.00
68712;BME280;55690;51.566;19.198;2023-01-19T04:32:28;100395.74;;;2.78;100.00
68712;BME280;55690;51.566;19.198;2023-01-19T04:36:34;100408.28;;;2.77;100.00
68712;BME280;55690;51.566;19.198;2023-01-19T04:40:40;100393.79;;;3.00;100.00
68712;BME280;55690;51.566;19.198;2023-01-19T04:44:46;100406.95;;;3.05;100.00
68712;BME280;55690;51.566;19.198;2023-01-19T04:48:53;100412.81;;;3.13;100.00
68712;BME280;55690;51.566;19.198;2023-01-19T04:52:59;100418.40;;;3.08;100.00
68712;BME280;55690;51.566;19.198;2023-01-19T04:57:05;100428.41;;;3.05;100.00
68712;BME280;55690;51.566;19.198;2023-01-19T05:01:11;100441.12;;;3.01;100.00
68712;BME280;55690;51.566;19.198;2023-01-19T05:05:17;100442.40;;;3.11;100.00
68712;BME280;55690;51.566;19.198;2023-01-19T05:09:24;100440.00;;;3.05;100.00
68712;BME280;55690;51.566;19.198;2023-01-19T05:13:30;100447.84;;;3.10;100.00
68712;BME280;55690;51.566;19.198;2023-01-19T05:17:36;100444.43;;;3.06;100.00
68712;BME280;55690;51.566;19.198;2023-01-19T05:21:42;100461.18;;;3.11;100.00
68712;BME280;55690;51.566;19.198;2023-01-19T05:25:48;100479.59;;;3.19;100.00
68712;BME280;55690;51.566;19.198;2023-01-19T05:29:54;100482.63;;;3.30;100.00
68712;BME280;55690;51.566;19.198;2023-01-19T05:34:01;100481.18;;;3.42;100.00
68712;BME280;55690;51.566;19.198;2023-01-19T05:38:07;100476.69;;;3.42;100.00
68712;BME280;55690;51.566;19.198;2023-01-19T05:42:13;100483.28;;;3.35;100.00
68712;BME280;55690;51.566;19.198;2023-01-19T05:46:19;100485.34;;;3.47;100.00
68712;BME280;55690;51.566;19.198;2023-01-19T05:50:25;100500.04;;;3.40;100.00
68712;BME280;55690;51.566;19.198;2023-01-19T05:54:32;100514.77;;;3.31;100.00
68712;BME280;55690;51.566;19.198;2023-01-19T05:58:38;100514.77;;;3.31;100.00
68712;BME280;55690;51.566;19.198;2023-01-19T06:02:44;100528.33;;;3.28;100.00
68712;BME280;55690;51.566;19.198;2023-01-19T06:06:50;100539.93;;;3.29;100.00
68712;BME280;55690;51.566;19.198;2023-01-19T06:10:57;100543.93;;;3.39;100.00
68712;BME280;55690;51.566;19.198;2023-01-19T06:15:03;100536.93;;;3.54;100.00
68712;BME280;55690;51.566;19.198;2023-01-19T06:19:09;100537.52;;;3.60;100.00
68712;BME280;55690;51.566;19.198;2023-01-19T06:23:15;100547.52;;;3.57;100.00
68712;BME280;55690;51.566;19.198;2023-01-19T06:27:21;100551.08;;;3.57;100.00
68712;BME280;55690;51.566;19.198;2023-01-19T06:31:27;100542.38;;;3.52;100.00
68712;BME280;55690;51.566;19.198;2023-01-19T06:35:33;100542.88;;;3.60;100.00
68712;BME280;55690;51.566;19.198;2023-01-19T06:39:40;100529.49;;;3.42;100.00
68712;BME280;55690;51.566;19.198;2023-01-19T06:43:46;100537.23;;;3.48;100.00
68712;BME280;55690;51.566;19.198;2023-01-19T06:47:52;100530.47;;;3.58;100.00
68712;BME280;55690;51.566;19.198;2023-01-19T06:51:58;100531.16;;;3.44;100.00
68712;BME280;55690;51.566;19.198;2023-01-19T06:56:05;100539.33;;;3.60;100.00
68712;BME280;55690;51.566;19.198;2023-01-19T07:00:12;100537.33;;;3.46;100.00
68712;BME280;55690;51.566;19.198;2023-01-19T07:04:17;100540.34;;;3.57;100.00
68712;BME280;55690;51.566;19.198;2023-01-19T07:08:23;100543.38;;;3.68;100.00
68712;BME280;55690;51.566;19.198;2023-01-19T07:12:29;100552.45;;;3.66;100.00
68712;BME280;55690;51.566;19.198;2023-01-19T07:17:26;100554.62;;;3.77;100.00
68712;BME280;55690;51.566;19.198;2023-01-19T07:21:32;100570.24;;;3.68;100.00
68712;BME280;55690;51.566;19.198;2023-01-19T07:25:38;100561.45;;;3.65;100.00
68712;BME280;55690;51.566;19.198;2023-01-19T07:29:44;100586.05;;;3.56;100.00
68712;BME280;55690;51.566;19.198;2023-01-19T07:33:51;100602.95;;;3.58;100.00
68712;BME280;55690;51.566;19.198;2023-01-19T07:37:58;100603.41;;;3.67;100.00
68712;BME280;55690;51.566;19.198;2023-01-19T07:42:03;100603.56;;;3.46;100.00
68712;BME280;55690;51.566;19.198;2023-01-19T07:46:09;100605.87;;;3.72;100.00
68712;BME280;55690;51.566;19.198;2023-01-19T07:50:17;100600.57;;;3.71;100.00
68712;BME280;55690;51.566;19.198;2023-01-19T07:54:24;100602.97;;;3.77;100.00
68712;BME280;55690;51.566;19.198;2023-01-19T07:58:28;100608.55;;;3.72;100.00
68712;BME280;55690;51.566;19.198;2023-01-19T08:02:34;100610.66;;;3.65;100.00
68712;BME280;55690;51.566;19.198;2023-01-19T08:06:43;100617.47;;;3.54;100.00
68712;BME280;55690;51.566;19.198;2023-01-19T08:10:50;100620.23;;;3.71;100.00
68712;BME280;55690;51.566;19.198;2023-01-19T08:14:53;100621.91;;;3.74;100.00
68712;BME280;55690;51.566;19.198;2023-01-19T08:18:59;100629.17;;;3.72;100.00
68712;BME280;55690;51.566;19.198;2023-01-19T08:23:05;100631.77;;;3.73;100.00
68712;BME280;55690;51.566;19.198;2023-01-19T08:27:11;100630.46;;;3.63;100.00
68712;BME280;55690;51.566;19.198;2023-01-19T08:31:17;100643.97;;;3.80;100.00
68712;BME280;55690;51.566;19.198;2023-01-19T08:35:24;100639.98;;;3.89;100.00
68712;BME280;55690;51.566;19.198;2023-01-19T08:39:30;100630.04;;;3.72;100.00
68712;BME280;55690;51.566;19.198;2023-01-19T08:43:36;100630.48;;;3.82;100.00
68712;BME280;55690;51.566;19.198;2023-01-19T08:47:42;100625.51;;;3.91;100.00
68712;BME280;55690;51.566;19.198;2023-01-19T08:51:50;100629.83;;;3.77;100.00
68712;BME280;55690;51.566;19.198;2023-01-19T08:55:56;100635.41;;;3.72;100.00
68712;BME280;55690;51.566;19.198;2023-01-19T09:00:02;100644.05;;;3.79;100.00
68712;BME280;55690;51.566;19.198;2023-01-19T09:04:07;100649.60;;;3.93;100.00
68712;BME280;55690;51.566;19.198;2023-01-19T09:08:14;100640.13;;;3.86;100.00
68712;BME280;55690;51.566;19.198;2023-01-19T09:12:19;100634.28;;;3.95;100.00
68712;BME280;55690;51.566;19.198;2023-01-19T09:16:25;100640.86;;;3.89;100.00
68712;BME280;55690;51.566;19.198;2023-01-19T09:20:32;100638.83;;;3.76;100.00
68712;BME280;55690;51.566;19.198;2023-01-19T09:24:38;100634.25;;;3.78;100.00
68712;BME280;55690;51.566;19.198;2023-01-19T09:28:44;100636.17;;;3.93;100.00
68712;BME280;55690;51.566;19.198;2023-01-19T09:32:50;100633.05;;;4.02;100.00
68712;BME280;55690;51.566;19.198;2023-01-19T09:36:56;100633.63;;;4.09;100.00
68712;BME280;55690;51.566;19.198;2023-01-19T09:41:03;100633.48;;;3.93;100.00
68712;BME280;55690;51.566;19.198;2023-01-19T09:45:57;100639.73;;;3.93;100.00
68712;BME280;55690;51.566;19.198;2023-01-19T09:49:33;100634.11;;;3.81;100.00
68712;BME280;55690;51.566;19.198;2023-01-19T09:53:48;100630.77;;;3.76;100.00
68712;BME280;55690;51.566;19.198;2023-01-19T09:57:51;100639.88;;;3.90;100.00
68712;BME280;55690;51.566;19.198;2023-01-19T10:06:10;100636.16;;;4.12;100.00
68712;BME280;55690;51.566;19.198;2023-01-19T10:18:45;100657.16;;;4.04;100.00
68712;BME280;55690;51.566;19.198;2023-01-19T10:22:52;100648.78;;;4.28;100.00
68712;BME280;55690;51.566;19.198;2023-01-19T10:26:55;100637.61;;;4.19;100.00
68712;BME280;55690;51.566;19.198;2023-01-19T10:30:57;100634.62;;;4.42;100.00
68712;BME280;55690;51.566;19.198;2023-01-19T10:35:00;100631.21;;;4.39;100.00
68712;BME280;55690;51.566;19.198;2023-01-19T10:39:08;100627.73;;;4.37;100.00
68712;BME280;55690;51.566;19.198;2023-01-19T10:47:34;100613.77;;;4.30;100.00
68712;BME280;55690;51.566;19.198;2023-01-19T10:51:46;100612.70;;;4.15;100.00
68712;BME280;55690;51.566;19.198;2023-01-19T11:00:04;100607.97;;;4.38;100.00
68712;BME280;55690;51.566;19.198;2023-01-19T11:08:28;100616.53;;;4.46;100.00
68712;BME280;55690;51.566;19.198;2023-01-19T11:12:30;100629.17;;;4.44;100.00
68712;BME280;55690;51.566;19.198;2023-01-19T11:16:34;100616.37;;;4.49;100.00
68712;BME280;55690;51.566;19.198;2023-01-19T11:20:47;100615.73;;;4.26;100.00
68712;BME280;55690;51.566;19.198;2023-01-19T11:24:51;100621.75;;;4.31;100.00
68712;BME280;55690;51.566;19.198;2023-01-19T11:29:01;100612.41;;;4.39;100.00
68712;BME280;55690;51.566;19.198;2023-01-19T11:33:04;100604.67;;;4.50;100.00
68712;BME280;55690;51.566;19.198;2023-01-19T11:41:38;100594.07;;;4.47;99.78
68712;BME280;55690;51.566;19.198;2023-01-19T11:45:32;100592.48;;;4.43;99.82
68712;BME280;55690;51.566;19.198;2023-01-19T11:49:48;100582.67;;;4.42;99.44
68712;BME280;55690;51.566;19.198;2023-01-19T11:53:51;100594.53;;;4.38;100.00
68712;BME280;55690;51.566;19.198;2023-01-19T11:57:54;100589.87;;;4.41;100.00
68712;BME280;55690;51.566;19.198;2023-01-19T12:01:59;100591.55;;;4.26;99.87
68712;BME280;55690;51.566;19.198;2023-01-19T12:06:09;100587.04;;;4.27;99.14
68712;BME280;55690;51.566;19.198;2023-01-19T12:10:26;100591.55;;;4.26;100.00
68712;BME280;55690;51.566;19.198;2023-01-19T12:14:42;100585.18;;;4.10;100.00
68712;BME280;55690;51.566;19.198;2023-01-19T12:18:48;100590.02;;;4.21;99.71
68712;BME280;55690;51.566;19.198;2023-01-19T12:23:01;100584.34;;;4.27;100.00
68712;BME280;55690;51.566;19.198;2023-01-19T12:27:15;100585.93;;;4.31;100.00
68712;BME280;55690;51.566;19.198;2023-01-19T12:31:21;100587.04;;;4.27;100.00
68712;BME280;55690;51.566;19.198;2023-01-19T12:39:46;100600.23;;;4.49;100.00
68712;BME280;55690;51.566;19.198;2023-01-19T12:48:04;100602.92;;;4.49;99.75
68712;BME280;55690;51.566;19.198;2023-01-19T12:52:22;100601.01;;;4.33;99.72
68712;BME280;55690;51.566;19.198;2023-01-19T12:56:33;100602.92;;;4.49;99.76
68712;BME280;55690;51.566;19.198;2023-01-19T13:00:46;100605.94;;;4.60;98.48
68712;BME280;55690;51.566;19.198;2023-01-19T13:13:34;100607.59;;;4.45;98.15
68712;BME280;55690;51.566;19.198;2023-01-19T13:17:48;100607.52;;;4.47;98.84
68712;BME280;55690;51.566;19.198;2023-01-19T13:21:51;100609.66;;;4.57;99.01
68712;BME280;55690;51.566;19.198;2023-01-19T13:26:03;100609.71;;;4.39;99.09
68712;BME280;55690;51.566;19.198;2023-01-19T13:30:11;100627.43;;;4.43;98.50
68712;BME280;55690;51.566;19.198;2023-01-19T13:34:22;100618.80;;;4.19;99.86
68712;BME280;55690;51.566;19.198;2023-01-19T13:38:27;100628.61;;;4.37;99.78
68712;BME280;55690;51.566;19.198;2023-01-19T13:42:35;100620.23;;;4.26;100.00
68712;BME280;55690;51.566;19.198;2023-01-19T13:46:40;100601.27;;;4.46;100.00
68712;BME280;55690;51.566;19.198;2023-01-19T13:50:42;100606.41;;;4.51;98.95
68712;BME280;55690;51.566;19.198;2023-01-19T13:54:53;100615.16;;;4.37;100.00
68712;BME280;55690;51.566;19.198;2023-01-19T13:59:01;100623.14;;;4.21;99.61
68712;BME280;55690;51.566;19.198;2023-01-19T14:03:19;100624.31;;;4.16;99.15
68712;BME280;55690;51.566;19.198;2023-01-19T14:07:24;100632.42;;;4.33;99.22
68712;BME280;55690;51.566;19.198;2023-01-19T14:11:29;100632.96;;;4.22;98.90
68712;BME280;55690;51.566;19.198;2023-01-19T14:15:33;100637.15;;;4.28;99.12
68712;BME280;55690;51.566;19.198;2023-01-19T14:32:15;100640.79;;;4.27;99.54
68712;BME280;55690;51.566;19.198;2023-01-19T14:40:36;100653.45;;;4.42;98.87
68712;BME280;55690;51.566;19.198;2023-01-19T14:44:39;100654.01;;;4.31;99.69
68712;BME280;55690;51.566;19.198;2023-01-19T14:48:46;100656.84;;;4.28;98.83
68712;BME280;55690;51.566;19.198;2023-01-19T14:52:54;100657.79;;;4.27;99.07
68712;BME280;55690;51.566;19.198;2023-01-19T14:56:57;100666.57;;;4.31;98.57
68712;BME280;55690;51.566;19.198;2023-01-19T15:01:00;100663.09;;;4.29;97.97
68712;BME280;55690;51.566;19.198;2023-01-19T15:05:03;100671.08;;;4.30;98.49
68712;BME280;55690;51.566;19.198;2023-01-19T15:09:05;100675.60;;;4.11;98.57
68712;BME280;55690;51.566;19.198;2023-01-19T15:13:15;100671.47;;;4.04;98.23
68712;BME280;55690;51.566;19.198;2023-01-19T15:17:20;100671.67;;;4.18;97.97
68712;BME280;55690;51.566;19.198;2023-01-19T15:21:26;100670.38;;;4.08;98.10
68712;BME280;55690;51.566;19.198;2023-01-19T15:25:28;100678.29;;;4.11;98.96
68712;BME280;55690;51.566;19.198;2023-01-19T15:29:32;100675.23;;;4.19;98.39
68712;BME280;55690;51.566;19.198;2023-01-19T15:33:36;100685.84;;;4.22;98.97
68712;BME280;55690;51.566;19.198;2023-01-19T15:37:42;100678.72;;;4.02;99.58
68712;BME280;55690;51.566;19.198;2023-01-19T15:41:44;100689.19;;;4.08;99.90
68712;BME280;55690;51.566;19.198;2023-01-19T15:45:53;100685.77;;;4.05;98.55
68712;BME280;55690;51.566;19.198;2023-01-19T15:50:00;100690.63;;;4.15;97.80
68712;BME280;55690;51.566;19.198;2023-01-19T15:54:02;100688.45;;;4.23;97.46
68712;BME280;55690;51.566;19.198;2023-01-19T15:58:04;100699.85;;;4.28;97.86
68712;BME280;55690;51.566;19.198;2023-01-19T16:02:06;100698.03;;;4.29;98.38
68712;BME280;55690;51.566;19.198;2023-01-19T16:06:08;100703.63;;;4.24;98.65
68712;BME280;55690;51.566;19.198;2023-01-19T16:10:11;100703.99;;;4.17;98.19
68712;BME280;55690;51.566;19.198;2023-01-19T16:14:13;100712.71;;;4.22;98.54
68712;BME280;55690;51.566;19.198;2023-01-19T16:18:15;100713.80;;;4.18;99.57
68712;BME280;55690;51.566;19.198;2023-01-19T16:22:16;100722.00;;;4.15;99.83
68712;BME280;55690;51.566;19.198;2023-01-19T16:26:26;100718.59;;;4.11;99.87
68712;BME280;55690;51.566;19.198;2023-01-19T16:30:28;100717.87;;;4.26;99.20
68712;BME280;55690;51.566;19.198;2023-01-19T16:34:30;100723.83;;;4.14;99.54
68712;BME280;55690;51.566;19.198;2023-01-19T16:38:32;100722.80;;;4.17;99.72
68712;BME280;55690;51.566;19.198;2023-01-19T16:42:34;100723.01;;;3.93;100.00
68712;BME280;55690;51.566;19.198;2023-01-19T16:46:40;100712.41;;;3.90;100.00
68712;BME280;55690;51.566;19.198;2023-01-19T16:50:41;100701.59;;;3.92;100.00
68712;BME280;55690;51.566;19.198;2023-01-19T16:54:43;100707.62;;;3.97;100.00
68712;BME280;55690;51.566;19.198;2023-01-19T17:03:16;100709.65;;;3.92;100.00
68712;BME280;55690;51.566;19.198;2023-01-19T17:07:18;100710.16;;;4.00;100.00
68712;BME280;55690;51.566;19.198;2023-01-19T17:11:23;100711.33;;;3.94;100.00
68712;BME280;55690;51.566;19.198;2023-01-19T17:15:25;100703.87;;;3.82;100.00
68712;BME280;55690;51.566;19.198;2023-01-19T17:19:27;100718.97;;;3.85;100.00
68712;BME280;55690;51.566;19.198;2023-01-19T17:23:29;100715.20;;;3.89;100.00
68712;BME280;55690;51.566;19.198;2023-01-19T17:27:31;100713.45;;;3.88;100.00
68712;BME280;55690;51.566;19.198;2023-01-19T17:31:34;100710.25;;;3.80;100.00
68712;BME280;55690;51.566;19.198;2023-01-19T17:35:36;100676.60;;;3.52;100.00
68712;BME280;55690;51.566;19.198;2023-01-19T17:39:38;100727.16;;;3.82;100.00
68712;BME280;55690;51.566;19.198;2023-01-19T17:43:39;100723.88;;;3.94;99.76
68712;BME280;55690;51.566;19.198;2023-01-19T17:47:41;100727.16;;;4.00;99.60
68712;BME280;55690;51.566;19.198;2023-01-19T17:51:43;100734.22;;;3.84;100.00
68712;BME280;55690;51.566;19.198;2023-01-19T17:55:44;100733.41;;;3.82;100.00
68712;BME280;55690;51.566;19.198;2023-01-19T17:59:46;100739.27;;;3.90;99.48
68712;BME280;55690;51.566;19.198;2023-01-19T18:03:48;100740.38;;;4.05;99.42
68712;BME280;55690;51.566;19.198;2023-01-19T18:07:49;100740.53;;;3.83;100.00
68712;BME280;55690;51.566;19.198;2023-01-19T18:11:51;100737.67;;;3.67;100.00
68712;BME280;55690;51.566;19.198;2023-01-19T18:20:08;100744.71;;;3.70;100.00
68712;BME280;55690;51.566;19.198;2023-01-19T18:24:09;100739.48;;;3.67;99.38
68712;BME280;55690;51.566;19.198;2023-01-19T18:28:11;100739.41;;;3.68;100.00
68712;BME280;55690;51.566;19.198;2023-01-19T18:32:13;100739.20;;;3.73;100.00
68712;BME280;55690;51.566;19.198;2023-01-19T18:36:15;100743.77;;;3.71;100.00
68712;BME280;55690;51.566;19.198;2023-01-19T18:40:17;100736.13;;;3.62;99.97
68712;BME280;55690;51.566;19.198;2023-01-19T18:44:19;100743.70;;;3.73;99.57
68712;BME280;55690;51.566;19.198;2023-01-19T18:48:21;100743.45;;;3.58;100.00
68712;BME280;55690;51.566;19.198;2023-01-19T18:52:22;100748.86;;;3.77;99.62
68712;BME280;55690;51.566;19.198;2023-01-19T18:56:24;100746.31;;;3.74;99.50
68712;BME280;55690;51.566;19.198;2023-01-19T19:00:26;100732.74;;;3.77;99.05
68712;BME280;55690;51.566;19.198;2023-01-19T19:04:28;100742.69;;;3.94;98.80
68712;BME280;55690;51.566;19.198;2023-01-19T19:08:29;100752.84;;;3.68;99.01
68712;BME280;55690;51.566;19.198;2023-01-19T19:12:31;100748.59;;;3.83;98.99
68712;BME280;55690;51.566;19.198;2023-01-19T19:16:33;100748.66;;;3.82;98.55
68712;BME280;55690;51.566;19.198;2023-01-19T19:20:37;100747.26;;;3.73;98.81
68712;BME280;55690;51.566;19.198;2023-01-19T19:24:39;100756.88;;;3.58;99.58
68712;BME280;55690;51.566;19.198;2023-01-19T19:28:41;100756.46;;;3.67;99.07
68712;BME280;55690;51.566;19.198;2023-01-19T19:32:43;100764.59;;;3.66;99.32
68712;BME280;55690;51.566;19.198;2023-01-19T19:36:44;100764.77;;;3.43;100.00
68712;BME280;55690;51.566;19.198;2023-01-19T19:40:46;100771.80;;;3.45;100.00
68712;BME280;55690;51.566;19.198;2023-01-19T19:44:48;100781.03;;;3.58;100.00
68712;BME280;55690;51.566;19.198;2023-01-19T19:48:50;100778.72;;;3.30;100.00
68712;BME280;55690;51.566;19.198;2023-01-19T19:52:52;100784.42;;;3.43;100.00
68712;BME280;55690;51.566;19.198;2023-01-19T19:56:54;100793.93;;;3.50;100.00
68712;BME280;55690;51.566;19.198;2023-01-19T20:00:56;100799.43;;;3.47;100.00
68712;BME280;55690;51.566;19.198;2023-01-19T20:04:58;100803.54;;;3.36;100.00
68712;BME280;55690;51.566;19.198;2023-01-19T20:09:00;100797.21;;;3.57;100.00
68712;BME280;55690;51.566;19.198;2023-01-19T20:13:07;100806.82;;;3.62;100.00
68712;BME280;55690;51.566;19.198;2023-01-19T20:17:12;100795.13;;;3.63;100.00
68712;BME280;55690;51.566;19.198;2023-01-19T20:21:26;100791.31;;;3.69;100.00
68712;BME280;55690;51.566;19.198;2023-01-19T20:25:28;100808.29;;;3.49;100.00
68712;BME280;55690;51.566;19.198;2023-01-19T20:29:31;100820.77;;;3.50;100.00
68712;BME280;55690;51.566;19.198;2023-01-19T20:33:37;100816.97;;;3.36;100.00
68712;BME280;55690;51.566;19.198;2023-01-19T20:37:44;100823.26;;;3.55;100.00
68712;BME280;55690;51.566;19.198;2023-01-19T20:41:49;100833.13;;;3.75;100.00
68712;BME280;55690;51.566;19.198;2023-01-19T20:45:56;100831.11;;;3.59;100.00
68712;BME280;55690;51.566;19.198;2023-01-19T20:50:02;100842.52;;;3.64;100.00
68712;BME280;55690;51.566;19.198;2023-01-19T20:54:13;100825.74;;;3.59;100.00
68712;BME280;55690;51.566;19.198;2023-01-19T20:58:15;100852.61;;;3.80;100.00
68712;BME280;55690;51.566;19.198;2023-01-19T21:02:20;100856.09;;;3.82;99.94
68712;BME280;55690;51.566;19.198;2023-01-19T21:06:26;100853.27;;;3.64;100.00
68712;BME280;55690;51.566;19.198;2023-01-19T21:10:32;100862.80;;;3.51;100.00
68712;BME280;55690;51.566;19.198;2023-01-19T21:14:39;100867.76;;;3.60;100.00
68712;BME280;55690;51.566;19.198;2023-01-19T21:18:45;100869.31;;;3.66;100.00
68712;BME280;55690;51.566;19.198;2023-01-19T21:22:51;100882.13;;;3.59;100.00
68712;BME280;55690;51.566;19.198;2023-01-19T21:26:57;100891.87;;;3.62;100.00
68712;BME280;55690;51.566;19.198;2023-01-19T21:31:11;100913.90;;;3.70;100.00
68712;BME280;55690;51.566;19.198;2023-01-19T21:35:13;100910.48;;;3.66;100.00
68712;BME280;55690;51.566;19.198;2023-01-19T21:39:16;100930.50;;;3.38;100.00
68712;BME280;55690;51.566;19.198;2023-01-19T21:43:23;100940.65;;;3.51;100.00
68712;BME280;55690;51.566;19.198;2023-01-19T21:47:28;100945.05;;;3.32;100.00
68712;BME280;55690;51.566;19.198;2023-01-19T21:51:35;100957.98;;;3.44;100.00
68712;BME280;55690;51.566;19.198;2023-01-19T21:55:42;100958.69;;;3.48;100.00
68712;BME280;55690;51.566;19.198;2023-01-19T21:59:48;100961.37;;;3.48;100.00
68712;BME280;55690;51.566;19.198;2023-01-19T22:03:54;100970.86;;;3.56;100.00
68712;BME280;55690;51.566;19.198;2023-01-19T22:07:59;100972.79;;;3.53;100.00
68712;BME280;55690;51.566;19.198;2023-01-19T22:12:05;100984.41;;;3.53;100.00
68712;BME280;55690;51.566;19.198;2023-01-19T22:16:14;100987.23;;;3.50;100.00
68712;BME280;55690;51.566;19.198;2023-01-19T22:20:17;100980.91;;;3.51;100.00
68712;BME280;55690;51.566;19.198;2023-01-19T22:24:24;100984.95;;;3.41;100.00
68712;BME280;55690;51.566;19.198;2023-01-19T22:28:30;100976.32;;;3.33;100.00
68712;BME280;55690;51.566;19.198;2023-01-19T22:32:36;100973.63;;;3.33;100.00
68712;BME280;55690;51.566;19.198;2023-01-19T22:36:42;100981.41;;;3.17;100.00